Time;durP1;ratioP1;P1;durP2;ratioP2;P2;SDS_P1;SDS_P2;PMS_P1;PMS_P2;Temp;Humidity;BMP_temperature;BMP_pressure;BME280_temperature;BME280_humidity;BME280_pressure;Samples;Min_cycle;Max_cycle;Signal;HPM_P1;HPM_P2
2022/03/15 00:06:41;;;;;;;4.82;4.43;;;7.70;99.90;;;;;;6129823;23;20270;-84
2022/03/15 00:09:22;;;;;;;6.05;4.70;;;7.70;99.90;;;;;;6130295;23;20187;-83
2022/03/15 00:12:04;;;;;;;7.60;4.95;;;7.80;99.90;;;;;;6130187;23;20175;-83
2022/03/15 00:14:57;;;;;;;6.15;5.60;;;7.50;99.90;;;;;;6129936;23;20168;-84
2022/03/15 00:17:32;;;;;;;6.20;5.70;;;7.50;99.90;;;;;;6130816;23;20248;-83
2022/03/15 00:20:10;;;;;;;6.03;5.50;;;7.60;99.90;;;;;;6130141;23;20185;-83
2022/03/15 00:22:59;;;;;;;7.03;5.93;;;7.60;99.90;;;;;;6129682;23;20186;-84
2022/03/15 00:25:38;;;;;;;5.03;4.53;;;7.60;99.90;;;;;;6130010;23;20212;-84
2022/03/15 00:28:25;;;;;;;5.35;4.80;;;7.60;99.90;;;;;;6129667;23;20186;-83
2022/03/15 00:31:03;;;;;;;9.75;6.22;;;7.40;99.90;;;;;;6130175;23;20179;-83
2022/03/15 00:33:56;;;;;;;10.60;6.10;;;7.00;99.90;;;;;;6102957;23;20707;-84
2022/03/15 00:36:34;;;;;;;7.53;5.72;;;6.70;99.90;;;;;;6129998;23;20211;-83
2022/03/15 00:39:08;;;;;;;8.07;4.78;;;6.60;99.90;;;;;;6129860;23;20187;-83
2022/03/15 00:41:58;;;;;;;9.40;6.05;;;6.70;99.90;;;;;;6128791;23;20176;-83
2022/03/15 00:44:42;;;;;;;6.68;5.38;;;6.90;99.90;;;;;;6128494;23;20255;-83
2022/03/15 00:47:10;;;;;;;6.13;5.63;;;7.10;99.90;;;;;;6128558;23;20207;-83
2022/03/15 00:49:36;;;;;;;5.43;4.57;;;7.10;99.90;;;;;;6132067;23;20526;-84
2022/03/15 00:52:04;;;;;;;5.03;4.60;;;7.20;99.90;;;;;;6131980;23;20187;-84
2022/03/15 00:54:32;;;;;;;6.85;6.32;;;7.20;99.90;;;;;;6132955;23;20206;-83
2022/03/15 00:56:59;;;;;;;5.40;4.90;;;7.10;99.90;;;;;;6132495;23;20203;-84
2022/03/15 00:59:26;;;;;;;5.05;4.32;;;7.10;99.90;;;;;;6133198;23;20731;-84
2022/03/15 01:01:53;;;;;;;7.43;5.43;;;7.20;99.90;;;;;;6133689;23;20188;-83
2022/03/15 01:07:14;;;;;;;10.85;6.05;;;7.30;99.90;;;;;;6131813;23;20766;-84
2022/03/15 01:10:39;;;;;;;5.63;5.05;;;7.20;99.90;;;;;;6132870;23;20250;-84
2022/03/15 01:13:21;;;;;;;5.38;4.53;;;7.30;99.90;;;;;;6131312;23;20521;-84
2022/03/15 01:15:53;;;;;;;11.45;4.80;;;7.30;99.90;;;;;;6133038;23;20204;-83
2022/03/15 01:18:48;;;;;;;7.68;5.80;;;7.40;99.90;;;;;;6143214;23;20235;-84
2022/03/15 01:24:36;;;;;;;5.80;4.50;;;7.40;99.90;;;;;;6132773;23;20183;-84
2022/03/15 01:27:15;;;;;;;6.10;5.60;;;7.20;99.90;;;;;;6131795;23;20200;-83
2022/03/15 01:32:34;;;;;;;5.63;5.07;;;7.10;99.90;;;;;;6128453;23;20184;-83
2022/03/15 01:35:16;;;;;;;4.97;4.60;;;7.20;99.90;;;;;;6132672;23;20655;-84
2022/03/15 01:37:53;;;;;;;5.35;4.85;;;7.30;99.90;;;;;;6132617;23;20207;-84
2022/03/15 01:40:26;;;;;;;6.25;5.65;;;7.40;99.90;;;;;;6131784;23;20180;-83
2022/03/15 01:48:33;;;;;;;5.35;4.93;;;7.00;99.90;;;;;;6133857;23;20243;-83
2022/03/15 01:51:01;;;;;;;6.22;5.63;;;7.10;99.90;;;;;;6135480;23;20199;-83
2022/03/15 01:53:37;;;;;;;4.82;4.38;;;7.10;99.90;;;;;;6132755;23;20180;-84
2022/03/15 01:56:21;;;;;;;5.78;5.30;;;7.00;99.90;;;;;;6131943;23;20233;-85
2022/03/15 01:59:11;;;;;;;5.72;5.10;;;6.90;99.90;;;;;;6133910;23;20199;-83
2022/03/15 02:01:51;;;;;;;7.05;6.30;;;7.00;99.90;;;;;;6131838;23;20187;-83
2022/03/15 02:04:25;;;;;;;6.93;6.25;;;7.10;99.90;;;;;;6107044;23;20179;-84
2022/03/15 02:07:12;;;;;;;7.18;5.40;;;7.10;99.90;;;;;;6129334;23;20619;-83
2022/03/15 02:09:54;;;;;;;6.03;5.55;;;7.20;99.90;;;;;;6132081;23;20199;-84
2022/03/15 02:12:38;;;;;;;5.28;4.78;;;7.30;99.90;;;;;;6132207;23;20203;-84
2022/03/15 02:15:38;;;;;;;6.25;5.30;;;7.40;99.90;;;;;;6134567;23;20257;-84
2022/03/15 02:18:06;;;;;;;6.53;5.07;;;7.20;99.90;;;;;;6129932;23;20187;-84
2022/03/15 02:20:55;;;;;;;5.85;5.28;;;7.20;99.90;;;;;;6130232;23;20168;-84
2022/03/15 02:23:38;;;;;;;5.82;4.70;;;7.10;99.90;;;;;;6130307;23;20177;-84
2022/03/15 02:28:32;;;;;;;6.28;5.35;;;7.00;99.90;;;;;;6075492;23;20575;-82
2022/03/15 02:30:59;;;;;;;6.82;5.18;;;6.80;99.90;;;;;;6074753;23;20181;-82
2022/03/15 02:33:26;;;;;;;6.55;5.45;;;6.90;99.90;;;;;;6075631;23;20244;-82
2022/03/15 02:35:54;;;;;;;7.28;5.40;;;7.00;99.90;;;;;;6085500;23;20180;-82
2022/03/15 02:38:21;;;;;;;8.15;5.70;;;6.90;99.90;;;;;;6121704;23;20177;-82
2022/03/15 02:40:48;;;;;;;5.80;5.20;;;7.00;99.90;;;;;;6118311;23;20184;-83
2022/03/15 02:43:15;;;;;;;8.00;5.20;;;7.00;99.90;;;;;;6106979;23;20217;-82
2022/03/15 02:45:42;;;;;;;4.70;4.40;;;7.00;99.90;;;;;;6106561;23;20213;-82
2022/03/15 02:48:09;;;;;;;5.43;5.03;;;7.10;99.90;;;;;;6109293;23;20204;-82
2022/03/15 02:50:36;;;;;;;7.45;6.03;;;7.20;99.90;;;;;;6111335;23;20191;-82
2022/03/15 02:53:04;;;;;;;5.43;5.00;;;7.30;99.90;;;;;;6111087;23;20240;-82
2022/03/15 02:55:31;;;;;;;7.93;4.65;;;7.30;99.90;;;;;;6106953;23;20185;-83
2022/03/15 02:57:57;;;;;;;6.05;5.50;;;7.10;99.90;;;;;;6109266;23;20242;-83
2022/03/15 03:00:27;;;;;;;5.25;4.40;;;7.00;99.90;;;;;;6121595;23;20189;-83
2022/03/15 03:02:54;;;;;;;4.88;4.45;;;7.00;99.90;;;;;;6123502;23;20180;-82
2022/03/15 03:05:20;;;;;;;5.13;4.72;;;7.20;99.90;;;;;;6115484;23;20185;-82
2022/03/15 03:07:47;;;;;;;8.57;4.55;;;7.20;99.90;;;;;;6122978;23;20219;-82
2022/03/15 03:10:16;;;;;;;4.90;4.18;;;7.40;99.90;;;;;;6110991;23;20185;-82
2022/03/15 03:12:44;;;;;;;6.35;4.75;;;7.40;99.90;;;;;;6106339;23;20219;-83
2022/03/15 03:15:12;;;;;;;11.05;5.55;;;7.30;99.90;;;;;;6107098;23;20185;-82
2022/03/15 03:17:40;;;;;;;6.47;4.82;;;7.10;99.90;;;;;;6106320;23;20688;-82
2022/03/15 03:20:08;;;;;;;5.60;4.68;;;7.00;99.90;;;;;;6106010;23;20188;-82
2022/03/15 03:22:36;;;;;;;8.95;5.90;;;7.10;99.90;;;;;;6105871;23;20180;-82
2022/03/15 03:25:03;;;;;;;5.85;4.68;;;7.10;99.90;;;;;;6106240;23;20241;-82
2022/03/15 03:27:31;;;;;;;6.82;5.50;;;7.20;99.90;;;;;;6105996;23;20628;-82
2022/03/15 03:29:58;;;;;;;6.38;5.38;;;7.30;99.90;;;;;;6106392;23;20185;-82
2022/03/15 03:32:25;;;;;;;6.13;5.45;;;7.30;99.90;;;;;;6105403;23;20188;-83
2022/03/15 03:34:52;;;;;;;7.45;5.47;;;7.40;99.90;;;;;;6105729;23;20683;-82
2022/03/15 03:37:19;;;;;;;5.95;4.70;;;7.40;99.90;;;;;;6106173;23;20546;-82
2022/03/15 03:39:46;;;;;;;5.35;4.35;;;7.30;99.90;;;;;;6106172;23;20204;-82
2022/03/15 03:42:13;;;;;;;4.60;4.20;;;7.40;99.90;;;;;;6104970;23;20232;-82
2022/03/15 03:44:42;;;;;;;6.13;4.90;;;7.50;99.90;;;;;;6105729;23;20181;-82
2022/03/15 03:47:09;;;;;;;6.38;4.82;;;7.50;99.90;;;;;;6104410;23;20208;-82
2022/03/15 03:49:36;;;;;;;5.97;5.45;;;7.60;99.90;;;;;;6105280;23;20184;-83
2022/03/15 03:52:03;;;;;;;4.78;4.38;;;7.60;99.90;;;;;;6104633;23;20200;-82
2022/03/15 03:54:30;;;;;;;7.47;4.78;;;7.60;99.90;;;;;;6105505;23;20180;-83
2022/03/15 03:56:57;;;;;;;4.88;4.22;;;7.60;99.90;;;;;;6105879;23;20210;-82
2022/03/15 03:59:24;;;;;;;5.60;5.05;;;7.70;99.90;;;;;;6104880;23;20184;-82
2022/03/15 04:01:52;;;;;;;5.22;4.70;;;7.60;99.90;;;;;;6105123;23;20239;-82
2022/03/15 04:04:19;;;;;;;4.03;3.70;;;7.60;99.90;;;;;;6105560;23;20184;-82
2022/03/15 04:06:46;;;;;;;4.85;4.45;;;7.60;99.90;;;;;;6105114;23;20204;-82
2022/03/15 04:09:12;;;;;;;4.60;4.20;;;7.60;99.90;;;;;;6105298;23;20219;-82
2022/03/15 04:11:41;;;;;;;4.57;4.07;;;7.60;99.90;;;;;;6105720;23;20180;-82
2022/03/15 04:14:09;;;;;;;3.63;3.30;;;7.60;99.90;;;;;;6105472;23;20213;-83
2022/03/15 04:16:36;;;;;;;5.38;4.60;;;7.50;99.90;;;;;;6104636;23;20208;-82
2022/03/15 04:19:04;;;;;;;4.90;4.07;;;7.50;99.90;;;;;;6105479;23;20184;-83
2022/03/15 04:21:31;;;;;;;5.47;4.38;;;7.50;99.90;;;;;;6104725;23;20741;-82
2022/03/15 04:23:58;;;;;;;7.72;4.50;;;7.40;99.90;;;;;;6105262;23;20528;-82
2022/03/15 04:26:25;;;;;;;5.32;4.47;;;7.40;99.90;;;;;;6105300;23;20200;-82
2022/03/15 04:28:52;;;;;;;5.25;3.72;;;7.50;99.90;;;;;;6105672;23;20240;-82
2022/03/15 04:31:19;;;;;;;4.18;3.55;;;7.40;99.90;;;;;;6105094;23;20180;-82
2022/03/15 04:33:46;;;;;;;4.43;4.03;;;7.50;99.90;;;;;;6105163;23;20180;-82
2022/03/15 04:36:14;;;;;;;4.82;4.25;;;7.50;99.90;;;;;;6105174;23;20211;-83
2022/03/15 04:38:41;;;;;;;3.50;3.20;;;7.40;99.90;;;;;;6105454;23;20219;-83
2022/03/15 04:41:08;;;;;;;4.68;4.15;;;7.40;99.90;;;;;;6104448;23;20188;-82
2022/03/15 04:43:35;;;;;;;4.70;4.03;;;7.40;99.90;;;;;;6106240;23;20204;-82
2022/03/15 04:46:02;;;;;;;8.65;4.65;;;7.50;99.90;;;;;;6104816;23;20249;-82
2022/03/15 04:48:28;;;;;;;7.70;4.38;;;7.50;99.90;;;;;;6105873;23;20180;-82
2022/03/15 04:50:55;;;;;;;4.75;4.10;;;7.50;99.90;;;;;;6104962;23;20187;-82
2022/03/15 04:53:23;;;;;;;4.45;4.05;;;7.50;99.90;;;;;;6104844;23;20181;-82
2022/03/15 04:55:50;;;;;;;4.93;4.43;;;7.50;99.90;;;;;;6105355;23;20667;-82
2022/03/15 04:58:17;;;;;;;4.07;3.75;;;7.50;99.90;;;;;;6104909;23;20211;-83
2022/03/15 05:00:43;;;;;;;10.07;5.32;;;7.50;99.90;;;;;;6104199;23;20180;-82
2022/03/15 05:03:10;;;;;;;5.05;4.65;;;7.60;99.90;;;;;;6104642;23;20192;-82
2022/03/15 05:05:37;;;;;;;4.22;3.92;;;7.50;99.90;;;;;;6105614;23;20223;-82
2022/03/15 05:08:05;;;;;;;8.88;3.60;;;7.50;99.90;;;;;;6104740;23;20200;-83
2022/03/15 05:13:18;;;;;;;4.03;3.70;;;7.30;99.90;;;;;;6105268;23;20189;-82
2022/03/15 05:15:45;;;;;;;4.88;4.40;;;7.40;99.90;;;;;;6105669;23;20184;-83
2022/03/15 05:18:12;;;;;;;7.78;4.28;;;7.40;99.90;;;;;;6104644;23;20206;-83
2022/03/15 05:20:38;;;;;;;4.18;3.88;;;7.40;99.90;;;;;;6105260;23;20180;-84
2022/03/15 05:23:05;;;;;;;4.85;3.72;;;7.40;99.90;;;;;;6104997;23;20180;-84
2022/03/15 05:25:33;;;;;;;5.68;4.85;;;7.40;99.90;;;;;;6106063;23;20181;-84
2022/03/15 05:28:00;;;;;;;9.90;4.40;;;7.40;99.90;;;;;;6104916;23;20218;-84
2022/03/15 05:30:27;;;;;;;6.15;4.07;;;7.50;99.90;;;;;;6104028;23;20188;-83
2022/03/15 05:32:54;;;;;;;5.07;3.83;;;7.50;99.90;;;;;;6105271;23;20187;-83
2022/03/15 05:35:21;;;;;;;6.20;3.90;;;7.50;99.90;;;;;;6105520;23;20180;-83
2022/03/15 05:37:47;;;;;;;4.53;4.13;;;7.50;99.90;;;;;;6105075;23;20206;-83
2022/03/15 05:40:14;;;;;;;7.32;4.05;;;7.50;99.90;;;;;;6104683;23;20191;-83
2022/03/15 05:42:42;;;;;;;4.55;4.00;;;7.50;99.90;;;;;;6105044;23;20564;-83
2022/03/15 05:45:10;;;;;;;4.68;4.25;;;7.50;99.90;;;;;;6104226;23;20188;-83
2022/03/15 05:47:36;;;;;;;5.78;4.82;;;7.50;99.90;;;;;;6105355;23;20200;-83
2022/03/15 05:50:04;;;;;;;5.63;5.13;;;7.50;99.90;;;;;;6105572;23;20185;-84
2022/03/15 05:52:31;;;;;;;6.50;4.07;;;7.50;99.90;;;;;;6105249;23;20233;-84
2022/03/15 05:54:58;;;;;;;6.20;4.60;;;7.50;99.90;;;;;;6105173;23;20191;-83
2022/03/15 05:57:24;;;;;;;4.65;4.25;;;7.60;99.90;;;;;;6104762;23;20212;-83
2022/03/15 05:59:52;;;;;;;5.13;4.35;;;7.60;99.90;;;;;;6104991;23;20188;-83
2022/03/15 06:02:24;;;;;;;6.15;4.55;;;7.60;99.90;;;;;;6104673;23;20244;-83
2022/03/15 06:04:51;;;;;;;4.63;4.22;;;7.60;99.90;;;;;;6098591;23;20181;-83
2022/03/15 06:07:18;;;;;;;8.43;4.95;;;7.70;99.90;;;;;;6102847;23;20200;-82
2022/03/15 06:09:45;;;;;;;5.07;4.57;;;7.70;99.90;;;;;;6110537;23;20185;-83
2022/03/15 06:12:12;;;;;;;7.07;5.50;;;7.70;99.90;;;;;;6118954;23;20192;-81
2022/03/15 06:14:39;;;;;;;9.63;5.72;;;7.80;99.90;;;;;;6111698;23;20184;-83
2022/03/15 06:17:07;;;;;;;6.38;4.45;;;7.80;99.90;;;;;;6096693;23;20208;-83
2022/03/15 06:19:34;;;;;;;6.25;4.65;;;7.90;99.90;;;;;;6096516;23;20239;-83
2022/03/15 06:22:01;;;;;;;8.32;4.65;;;7.90;99.90;;;;;;6096939;23;20180;-83
2022/03/15 06:24:28;;;;;;;5.72;5.22;;;8.00;99.90;;;;;;6097173;23;20184;-83
2022/03/15 06:26:54;;;;;;;4.90;4.40;;;8.10;99.90;;;;;;6096596;23;20552;-82
2022/03/15 06:29:21;;;;;;;8.35;4.47;;;8.10;99.90;;;;;;6097351;23;20192;-83
2022/03/15 06:31:48;;;;;;;5.38;4.85;;;8.20;99.90;;;;;;6096287;23;20666;-84
2022/03/15 06:34:16;;;;;;;4.45;4.05;;;8.20;99.90;;;;;;6096069;23;20187;-83
2022/03/15 06:36:44;;;;;;;9.48;5.15;;;8.20;99.90;;;;;;6097412;23;20206;-83
2022/03/15 06:39:11;;;;;;;6.63;4.97;;;8.20;99.90;;;;;;6100321;23;20215;-82
2022/03/15 06:41:39;;;;;;;7.82;4.70;;;8.30;99.90;;;;;;6099793;23;20184;-83
2022/03/15 06:44:06;;;;;;;4.38;3.88;;;8.30;99.90;;;;;;6098382;23;20180;-84
2022/03/15 06:46:33;;;;;;;4.57;4.05;;;8.30;99.90;;;;;;6098105;23;20200;-84
2022/03/15 06:49:00;;;;;;;5.95;5.35;;;8.40;99.90;;;;;;6097745;23;20181;-83
2022/03/15 06:51:28;;;;;;;4.72;4.32;;;8.50;99.90;;;;;;6097988;23;20524;-84
2022/03/15 06:53:55;;;;;;;6.30;5.07;;;8.50;99.90;;;;;;6097810;23;20181;-84
2022/03/15 06:56:22;;;;;;;5.00;4.60;;;8.60;99.90;;;;;;6098048;23;20284;-83
2022/03/15 06:59:10;;;;;;;4.77;4.23;;;8.70;99.90;;;;;;6097536;23;20202;-85
2022/03/15 07:02:31;;;;;;;7.80;4.80;;;8.80;99.90;;;;;;6095918;23;20504;-86
2022/03/15 07:15:27;;;;;;;4.10;3.80;;;8.90;99.90;;;;;;6000485;23;20259;-85
2022/03/15 07:21:38;;;;;;;7.28;5.10;;;8.70;99.90;;;;;;6069227;23;20219;-87
2022/03/15 07:27:16;;;;;;;5.63;4.80;;;8.70;99.90;;;;;;6106573;23;20424;-85
2022/03/15 07:33:09;;;;;;;6.82;4.50;;;8.50;99.90;;;;;;6097396;23;20232;-85
2022/03/15 07:36:16;;;;;;;5.03;3.75;;;8.50;99.90;;;;;;6116039;23;20173;-85
2022/03/15 07:39:17;;;;;;;5.88;3.63;;;8.60;99.90;;;;;;6114692;23;20204;-84
2022/03/15 07:41:50;;;;;;;5.18;4.78;;;8.60;99.90;;;;;;6096422;23;20255;-84
2022/03/15 07:44:23;;;;;;;6.05;4.65;;;8.50;99.90;;;;;;6104368;23;20244;-84
2022/03/15 07:46:52;;;;;;;3.65;3.25;;;8.50;99.90;;;;;;6122306;23;20214;-80
2022/03/15 07:49:20;;;;;;;5.40;4.43;;;8.50;99.90;;;;;;6119056;23;20173;-81
2022/03/15 07:51:48;;;;;;;4.67;4.27;;;8.60;99.90;;;;;;6104373;23;20732;-82
2022/03/15 07:54:33;;;;;;;4.20;3.80;;;8.80;99.90;;;;;;6101209;23;20475;-85
2022/03/15 07:57:23;;;;;;;7.20;4.47;;;8.80;99.90;;;;;;6103252;23;20227;-83
2022/03/15 08:00:00;;;;;;;4.83;4.43;;;9.00;99.90;;;;;;6099754;23;20240;-83
2022/03/15 08:02:26;;;;;;;4.10;3.70;;;8.90;99.90;;;;;;6096743;23;20397;-84
2022/03/15 08:05:00;;;;;;;13.20;7.30;;;9.00;99.90;;;;;;6097868;23;20428;-83
2022/03/15 08:07:27;;;;;;;4.50;3.25;;;9.20;99.50;;;;;;6098909;23;20445;-83
2022/03/15 08:10:00;;;;;;;5.37;3.70;;;9.40;99.30;;;;;;6103151;23;20209;-83
2022/03/15 08:12:30;;;;;;;5.15;4.30;;;9.50;99.30;;;;;;6099194;23;20822;-83
2022/03/15 08:14:57;;;;;;;5.70;4.43;;;9.60;98.80;;;;;;6100399;23;20189;-83
2022/03/15 08:17:31;;;;;;;4.10;3.80;;;9.70;98.50;;;;;;6101028;23;20208;-83
2022/03/15 08:19:58;;;;;;;9.80;4.47;;;9.90;98.60;;;;;;6096228;23;20419;-84
2022/03/15 08:22:38;;;;;;;5.07;4.63;;;10.10;97.50;;;;;;6101210;23;20419;-85
2022/03/15 08:25:07;;;;;;;4.53;3.90;;;10.20;97.10;;;;;;6100125;23;20403;-85
2022/03/15 08:27:46;;;;;;;4.10;3.27;;;10.30;96.70;;;;;;6109263;23;20520;-83
2022/03/15 08:30:13;;;;;;;4.33;3.33;;;10.40;96.20;;;;;;6128104;23;20465;-82
2022/03/15 08:32:40;;;;;;;4.00;3.60;;;10.50;96.20;;;;;;6129309;23;20725;-83
2022/03/15 08:35:08;;;;;;;6.97;4.73;;;10.70;96.10;;;;;;6129728;23;20415;-83
2022/03/15 08:37:36;;;;;;;6.00;4.30;;;10.90;95.60;;;;;;6132140;23;20506;-80
2022/03/15 08:40:04;;;;;;;3.73;3.33;;;10.80;95.60;;;;;;6132592;23;20419;-79
2022/03/15 08:42:31;;;;;;;3.87;3.53;;;10.80;95.00;;;;;;6134669;23;20477;-80
2022/03/15 08:44:59;;;;;;;4.03;3.73;;;10.80;95.00;;;;;;6134920;23;20394;-82
2022/03/15 08:47:28;;;;;;;4.57;3.80;;;10.90;95.00;;;;;;6134583;23;20442;-81
2022/03/15 08:49:55;;;;;;;4.23;3.10;;;10.90;95.10;;;;;;6134996;23;20406;-80
2022/03/15 08:52:24;;;;;;;2.90;2.70;;;11.00;95.20;;;;;;6131119;23;20442;-82
2022/03/15 08:55:01;;;;;;;7.30;3.67;;;11.00;95.60;;;;;;6129758;23;20430;-82
2022/03/15 08:57:29;;;;;;;4.20;3.90;;;10.90;95.60;;;;;;6131153;23;20441;-83
2022/03/15 09:00:04;;;;;;;2.87;2.67;;;10.90;96.20;;;;;;6129787;23;20455;-82
2022/03/15 09:02:30;;;;;;;3.47;3.20;;;10.80;96.40;;;;;;6130866;23;20420;-80
2022/03/15 09:04:57;;;;;;;4.40;3.60;;;10.80;96.70;;;;;;6131375;23;20740;-81
2022/03/15 09:07:24;;;;;;;3.30;2.90;;;10.80;97.10;;;;;;6130393;23;20445;-81
2022/03/15 09:09:51;;;;;;;4.90;3.70;;;10.70;97.70;;;;;;6130614;23;20415;-81
2022/03/15 09:12:18;;;;;;;4.70;3.33;;;10.60;98.70;;;;;;6130631;23;20420;-82
2022/03/15 09:14:48;;;;;;;8.53;3.43;;;10.30;99.90;;;;;;6131217;23;20430;-81
2022/03/15 09:17:16;;;;;;;3.40;2.87;;;10.00;99.90;;;;;;6130166;23;20453;-82
2022/03/15 09:19:43;;;;;;;5.03;3.70;;;9.80;99.90;;;;;;6132157;23;20449;-80
2022/03/15 09:22:10;;;;;;;3.50;3.20;;;9.70;99.90;;;;;;6131325;23;20722;-81
2022/03/15 09:24:37;;;;;;;3.15;2.85;;;9.60;99.90;;;;;;6132115;23;20499;-81
2022/03/15 09:27:05;;;;;;;3.70;3.40;;;9.50;99.90;;;;;;6130060;23;20216;-81
2022/03/15 09:29:32;;;;;;;4.07;3.67;;;9.20;99.90;;;;;;6131866;23;20166;-81
2022/03/15 09:31:59;;;;;;;4.03;3.22;;;9.40;99.90;;;;;;6130240;23;20251;-82
2022/03/15 09:34:28;;;;;;;3.77;3.47;;;9.30;99.90;;;;;;6130994;23;20276;-83
2022/03/15 09:36:55;;;;;;;6.87;3.20;;;9.20;99.90;;;;;;6131094;23;20415;-81
2022/03/15 09:39:21;;;;;;;3.50;3.20;;;9.50;99.90;;;;;;6130944;23;20475;-80
2022/03/15 09:41:51;;;;;;;3.70;3.40;;;9.60;99.90;;;;;;6130188;23;20181;-81
2022/03/15 09:44:19;;;;;;;4.30;3.90;;;9.80;99.90;;;;;;6130978;23;20249;-81
2022/03/15 09:46:50;;;;;;;6.32;4.07;;;10.00;99.90;;;;;;6129969;23;20743;-80
2022/03/15 09:49:18;;;;;;;5.20;3.50;;;9.90;99.90;;;;;;6130904;23;20492;-81
2022/03/15 09:51:46;;;;;;;4.00;3.50;;;10.00;99.90;;;;;;6130149;23;20440;-81
2022/03/15 09:54:14;;;;;;;4.37;3.97;;;10.20;99.90;;;;;;6131079;23;20393;-81
2022/03/15 09:56:42;;;;;;;4.20;3.90;;;10.10;99.90;;;;;;6130290;23;20425;-81
2022/03/15 09:59:14;;;;;;;3.73;3.50;;;10.20;99.90;;;;;;6130633;23;20453;-81
2022/03/15 10:01:42;;;;;;;4.37;3.63;;;10.30;99.90;;;;;;6137658;23;20889;-81
2022/03/15 10:04:09;;;;;;;3.50;3.17;;;10.50;99.90;;;;;;6131086;23;20429;-81
2022/03/15 10:06:36;;;;;;;4.00;3.70;;;10.60;99.90;;;;;;6130067;23;20420;-79
2022/03/15 10:09:05;;;;;;;3.80;3.40;;;10.60;99.90;;;;;;6130457;23;20442;-81
2022/03/15 10:11:32;;;;;;;4.07;3.60;;;10.50;99.90;;;;;;6130439;23;20414;-80
2022/03/15 10:13:59;;;;;;;4.00;3.60;;;10.60;99.90;;;;;;6133060;23;20413;-82
2022/03/15 10:16:30;;;;;;;3.63;3.30;;;10.80;99.90;;;;;;6132670;23;20423;-81
2022/03/15 10:18:58;;;;;;;3.47;3.27;;;10.90;99.90;;;;;;6132334;23;20441;-81
2022/03/15 10:21:37;;;;;;;4.23;3.77;;;11.10;99.90;;;;;;6132042;23;20916;-81
2022/03/15 10:24:08;;;;;;;3.63;3.30;;;11.20;99.90;;;;;;6132797;23;20465;-81
2022/03/15 10:26:38;;;;;;;4.47;4.07;;;11.30;99.90;;;;;;6132677;23;20396;-80
2022/03/15 10:29:05;;;;;;;7.40;4.37;;;11.50;99.90;;;;;;6132971;23;20403;-80
2022/03/15 10:31:33;;;;;;;3.60;3.20;;;11.60;99.90;;;;;;6132234;23;20450;-82
2022/03/15 10:34:01;;;;;;;5.17;3.83;;;11.60;99.90;;;;;;6138544;23;20414;-81
2022/03/15 10:36:36;;;;;;;4.37;3.97;;;11.70;99.90;;;;;;6138320;23;20736;-82
2022/03/15 10:39:05;;;;;;;3.87;3.50;;;11.70;99.90;;;;;;6137085;23;20438;-81
2022/03/15 10:41:47;;;;;;;3.90;3.50;;;11.80;99.90;;;;;;6135599;23;20447;-82
2022/03/15 10:44:21;;;;;;;4.07;3.70;;;11.80;99.90;;;;;;6138505;23;20732;-80
2022/03/15 10:47:00;;;;;;;3.83;3.30;;;11.80;99.90;;;;;;6139975;23;20512;-82
2022/03/15 10:49:26;;;;;;;4.73;3.50;;;11.90;99.90;;;;;;6139036;23;20788;-82
2022/03/15 10:51:53;;;;;;;4.67;3.30;;;12.00;99.90;;;;;;6137313;23;20895;-80
2022/03/15 10:54:24;;;;;;;4.50;4.00;;;12.00;99.90;;;;;;6137699;23;20742;-81
2022/03/15 10:56:55;;;;;;;4.37;3.50;;;12.10;99.90;;;;;;6134630;23;20427;-82
2022/03/15 10:59:23;;;;;;;3.50;2.97;;;12.10;99.90;;;;;;6139713;23;20448;-81
2022/03/15 11:01:50;;;;;;;5.67;3.63;;;12.10;99.90;;;;;;6139599;23;20819;-82
2022/03/15 11:04:18;;;;;;;6.33;4.10;;;12.10;99.90;;;;;;6140081;23;20475;-82
2022/03/15 11:06:47;;;;;;;4.97;4.30;;;12.10;99.90;;;;;;6136073;23;20392;-83
2022/03/15 11:09:19;;;;;;;6.70;4.60;;;12.10;99.90;;;;;;6132718;23;20887;-83
2022/03/15 11:11:52;;;;;;;4.03;3.70;;;12.10;99.90;;;;;;6136988;23;20413;-81
2022/03/15 11:14:36;;;;;;;6.23;3.90;;;12.00;99.90;;;;;;6140278;23;20470;-81
2022/03/15 11:17:06;;;;;;;6.30;4.90;;;12.10;99.90;;;;;;6137524;23;20443;-81
2022/03/15 11:19:39;;;;;;;7.70;4.20;;;12.00;99.90;;;;;;6132446;23;20964;-82
2022/03/15 11:22:06;;;;;;;5.20;4.70;;;12.00;99.90;;;;;;6128210;23;20734;-81
2022/03/15 11:24:39;;;;;;;4.10;3.80;;;12.00;99.90;;;;;;6129037;23;20426;-82
2022/03/15 11:27:08;;;;;;;6.03;5.43;;;11.90;99.90;;;;;;6133740;23;20450;-82
2022/03/15 11:29:36;;;;;;;6.63;6.03;;;11.60;99.90;;;;;;6134604;23;20417;-81
2022/03/15 11:32:03;;;;;;;5.63;5.03;;;11.50;99.90;;;;;;6133077;23;20406;-81
2022/03/15 11:34:31;;;;;;;7.10;5.77;;;11.40;99.90;;;;;;6133637;23;20405;-81
2022/03/15 11:37:00;;;;;;;6.40;6.00;;;11.30;99.90;;;;;;6132871;23;20445;-82
2022/03/15 11:39:26;;;;;;;7.30;6.27;;;11.20;99.90;;;;;;6133407;23;20513;-82
2022/03/15 11:41:54;;;;;;;8.10;6.50;;;11.10;99.90;;;;;;6135061;23;20417;-81
2022/03/15 11:44:31;;;;;;;7.57;6.87;;;11.00;99.90;;;;;;6136935;23;20415;-82
2022/03/15 11:47:11;;;;;;;10.97;6.97;;;10.90;99.90;;;;;;6135433;23;20533;-81
2022/03/15 11:49:47;;;;;;;7.57;6.73;;;11.00;99.90;;;;;;6133849;23;20399;-81
2022/03/15 11:52:27;;;;;;;7.67;6.97;;;10.90;99.90;;;;;;6134983;23;20398;-81
2022/03/15 11:55:01;;;;;;;7.73;7.00;;;10.80;99.90;;;;;;6136496;23;20401;-81
2022/03/15 11:57:31;;;;;;;7.40;6.63;;;10.70;99.90;;;;;;6136937;23;20764;-81
2022/03/15 12:00:00;;;;;;;6.93;6.33;;;10.70;99.90;;;;;;6135542;23;20457;-81
2022/03/15 12:02:29;;;;;;;7.90;7.20;;;10.70;99.90;;;;;;6134924;23;20453;-82
2022/03/15 12:04:57;;;;;;;9.00;7.70;;;10.60;99.90;;;;;;6135404;23;20747;-82
2022/03/15 12:07:45;;;;;;;8.20;6.70;;;10.60;99.90;;;;;;6137125;23;20436;-82
2022/03/15 12:10:12;;;;;;;10.10;7.93;;;10.50;99.90;;;;;;6134289;23;20403;-78
2022/03/15 12:12:47;;;;;;;8.40;7.70;;;10.60;99.90;;;;;;6132595;23;20417;-82
2022/03/15 12:15:44;;;;;;;8.90;8.10;;;10.60;99.90;;;;;;6134258;23;20487;-83
2022/03/15 12:18:23;;;;;;;11.00;9.07;;;10.50;99.90;;;;;;6131726;23;20525;-81
2022/03/15 12:21:02;;;;;;;15.00;8.70;;;10.50;99.90;;;;;;6131446;23;20421;-81
2022/03/15 12:23:30;;;;;;;8.43;7.47;;;10.50;99.90;;;;;;6132354;23;20430;-80
2022/03/15 12:25:58;;;;;;;8.93;8.03;;;10.50;99.90;;;;;;6132970;23;20413;-79
2022/03/15 12:28:28;;;;;;;9.50;8.60;;;10.60;99.90;;;;;;6132908;23;20441;-80
2022/03/15 12:31:07;;;;;;;10.33;7.90;;;10.60;99.90;;;;;;6133751;23;20468;-81
2022/03/15 12:33:35;;;;;;;8.43;7.50;;;10.60;99.90;;;;;;6136234;23;20402;-82
2022/03/15 12:36:06;;;;;;;8.07;7.30;;;10.70;99.90;;;;;;6134024;23;20415;-79
2022/03/15 12:38:39;;;;;;;7.77;7.07;;;10.70;99.90;;;;;;6131116;23;20430;-81
2022/03/15 12:41:07;;;;;;;17.33;8.73;;;10.70;99.90;;;;;;6134947;23;20445;-80
2022/03/15 12:43:35;;;;;;;9.27;8.37;;;10.80;99.90;;;;;;6134114;23;20716;-82
2022/03/15 12:46:05;;;;;;;9.57;8.93;;;10.80;99.90;;;;;;6135821;23;20420;-80
2022/03/15 12:48:34;;;;;;;7.73;7.13;;;10.90;99.90;;;;;;6136229;23;20439;-80
2022/03/15 12:51:02;;;;;;;12.07;7.97;;;11.00;99.90;;;;;;6133618;23;20377;-81
2022/03/15 12:53:37;;;;;;;9.97;8.97;;;11.00;99.90;;;;;;6135840;23;20414;-81
2022/03/15 12:56:05;;;;;;;9.30;7.20;;;11.00;99.90;;;;;;6137436;23;20429;-80
2022/03/15 12:58:32;;;;;;;8.63;7.83;;;11.10;99.90;;;;;;6134631;23;20465;-80
2022/03/15 13:00:58;;;;;;;8.13;7.30;;;11.10;99.90;;;;;;6135211;23;20490;-80
2022/03/15 13:03:27;;;;;;;8.73;7.93;;;11.20;99.90;;;;;;6135762;23;20421;-79
2022/03/15 13:05:55;;;;;;;9.20;8.30;;;11.20;99.90;;;;;;6134159;23;20414;-80
2022/03/15 13:08:23;;;;;;;9.50;8.20;;;11.20;99.90;;;;;;6136513;23;20502;-81
2022/03/15 13:10:50;;;;;;;9.87;7.97;;;11.30;99.90;;;;;;6132571;23;20411;-81
2022/03/15 13:13:27;;;;;;;7.47;6.87;;;11.30;99.90;;;;;;6131514;23;20418;-82
2022/03/15 13:15:57;;;;;;;9.43;8.53;;;11.40;99.90;;;;;;6134336;23;20406;-81
2022/03/15 13:18:26;;;;;;;12.00;7.97;;;11.40;99.90;;;;;;6132739;23;20435;-83
2022/03/15 13:21:01;;;;;;;8.93;8.03;;;11.40;99.90;;;;;;6131560;23;20537;-81
2022/03/15 13:23:29;;;;;;;9.10;8.30;;;11.50;99.90;;;;;;6133342;23;20433;-82
2022/03/15 13:26:04;;;;;;;9.57;8.73;;;11.50;99.90;;;;;;6133827;23;20410;-81
2022/03/15 13:28:35;;;;;;;12.90;8.70;;;11.50;99.90;;;;;;6131291;23;20470;-81
2022/03/15 13:31:07;;;;;;;14.73;9.77;;;11.50;99.90;;;;;;6133666;23;20489;-81
2022/03/15 13:33:38;;;;;;;10.10;9.17;;;11.60;99.90;;;;;;6136347;23;20434;-83
2022/03/15 13:36:08;;;;;;;8.70;7.87;;;11.60;99.90;;;;;;6132014;23;20362;-82
2022/03/15 13:38:36;;;;;;;9.07;8.17;;;11.60;99.90;;;;;;6131211;23;20447;-81
2022/03/15 13:41:07;;;;;;;12.73;9.60;;;11.50;99.90;;;;;;6130920;23;20449;-81
2022/03/15 13:43:34;;;;;;;10.87;8.97;;;11.50;99.90;;;;;;6133872;23;20402;-81
2022/03/15 13:46:06;;;;;;;9.07;8.23;;;11.50;99.90;;;;;;6134123;23;20410;-80
2022/03/15 13:48:38;;;;;;;9.23;8.43;;;11.50;99.90;;;;;;6133136;23;20458;-80
2022/03/15 13:51:07;;;;;;;9.83;8.93;;;11.50;99.90;;;;;;6141114;23;20430;-83
2022/03/15 13:53:36;;;;;;;8.70;7.87;;;11.50;99.90;;;;;;6142617;23;20463;-82
2022/03/15 13:56:19;;;;;;;8.87;7.97;;;11.60;99.90;;;;;;6131933;23;20883;-80
2022/03/15 13:58:54;;;;;;;10.90;7.77;;;11.70;99.90;;;;;;6130200;23;20446;-81